Time;durP1;ratioP1;P1;durP2;ratioP2;P2;SDS_P1;SDS_P2;PMS_P1;PMS_P2;Temp;Humidity;BMP_temperature;BMP_pressure;BME280_temperature;BME280_humidity;BME280_pressure;Samples;Min_cycle;Max_cycle;Signal;HPM_P1;HPM_P2
2021/01/08 00:01:26;;;;;;;33.45;17.73;;;1.20;77.60;;;-0.93;78.84;95627.78;4989821;28;20022;-68
2021/01/08 00:03:52;;;;;;;31.73;16.70;;;1.20;77.60;;;-1.02;79.27;95613.91;5005775;28;20062;-67
2021/01/08 00:06:19;;;;;;;32.88;17.20;;;1.10;77.70;;;-1.00;79.32;95614.56;4990083;28;20072;-67
2021/01/08 00:08:44;;;;;;;35.22;16.27;;;1.10;77.80;;;-0.99;79.22;95617.97;4970472;28;20035;-67
2021/01/08 00:11:10;;;;;;;31.27;16.30;;;1.10;77.80;;;-1.04;79.27;95609.81;4977558;28;20061;-67
2021/01/08 00:13:36;;;;;;;30.30;16.45;;;1.10;77.90;;;-0.99;79.10;95628.31;5001979;28;20069;-67
2021/01/08 00:16:05;;;;;;;29.25;16.30;;;1.10;77.90;;;-1.03;78.96;95616.59;4988524;28;20129;-67
2021/01/08 00:18:30;;;;;;;30.13;15.70;;;1.10;77.80;;;-0.99;79.01;95623.13;4978725;28;20395;-68
2021/01/08 00:20:56;;;;;;;32.60;16.05;;;1.20;77.70;;;-1.05;79.24;95613.34;5006220;28;20072;-68
2021/01/08 00:23:22;;;;;;;32.85;16.60;;;1.10;77.60;;;-1.06;78.93;95607.38;4986062;28;20129;-67
2021/01/08 00:25:50;;;;;;;32.55;16.60;;;1.10;77.70;;;-1.00;79.08;95621.50;4985553;28;20188;-67
2021/01/08 00:28:16;;;;;;;30.20;15.00;;;1.10;77.70;;;-1.01;79.26;95619.88;4974018;28;20034;-68
2021/01/08 00:30:42;;;;;;;30.52;16.10;;;1.10;77.80;;;-1.07;79.02;95615.25;4963876;28;20179;-67
2021/01/08 00:33:08;;;;;;;30.88;15.30;;;1.10;77.80;;;-1.02;79.24;95618.25;4933643;28;20118;-68
2021/01/08 00:35:36;;;;;;;30.30;16.10;;;1.10;77.80;;;-1.08;79.11;95611.84;4985896;28;20062;-67
2021/01/08 00:38:03;;;;;;;31.05;15.85;;;1.10;77.80;;;-1.03;79.25;95614.03;4968991;28;20374;-67
2021/01/08 00:40:29;;;;;;;29.63;15.80;;;1.10;77.90;;;-1.02;79.30;95613.91;4985320;28;20023;-68
2021/01/08 00:42:54;;;;;;;31.65;16.42;;;1.10;77.70;;;-1.07;79.29;95610.88;4953029;28;20121;-67
2021/01/08 00:45:20;;;;;;;29.92;16.25;;;1.10;77.70;;;-1.01;79.31;95615.53;4985559;28;20072;-68
2021/01/08 00:47:46;;;;;;;32.20;15.77;;;1.10;77.70;;;-0.98;79.37;95617.03;4969708;28;20043;-67
2021/01/08 00:50:12;;;;;;;31.73;15.77;;;1.30;77.50;;;-0.97;79.07;95610.91;4985424;28;20138;-68
2021/01/08 00:52:38;;;;;;;31.27;16.08;;;1.20;77.00;;;-0.99;79.26;95608.47;4969205;28;20034;-67
2021/01/08 00:55:04;;;;;;;32.90;15.93;;;1.30;77.00;;;-1.02;79.02;95605.34;4954259;28;20470;-67
2021/01/08 00:57:30;;;;;;;30.02;15.82;;;1.20;77.10;;;-0.95;78.91;95609.03;4986735;28;20041;-68
2021/01/08 00:59:56;;;;;;;33.08;16.90;;;1.30;77.00;;;-0.94;79.23;95610.66;4973102;28;20065;-67
2021/01/08 01:02:21;;;;;;;31.15;16.08;;;1.30;77.00;;;-0.99;78.85;95611.03;4972920;28;20418;-68
2021/01/08 01:04:47;;;;;;;32.78;17.05;;;1.20;77.00;;;-1.01;79.32;95609.53;4957466;28;20400;-68
2021/01/08 01:07:13;;;;;;;32.55;16.98;;;1.20;77.20;;;-1.02;79.25;95598.41;4973027;28;20122;-68
2021/01/08 01:09:39;;;;;;;30.80;15.68;;;1.20;77.10;;;-0.99;79.10;95607.66;4973610;28;20126;-67
2021/01/08 01:12:05;;;;;;;29.45;15.88;;;1.10;77.30;;;-1.00;79.25;95617.16;4972699;28;20050;-67
2021/01/08 01:14:31;;;;;;;31.60;17.05;;;1.10;77.60;;;-1.02;79.43;95613.06;4973198;28;20038;-68
2021/01/08 01:16:56;;;;;;;30.58;16.20;;;1.10;77.70;;;-1.03;79.38;95617.41;4989108;28;20492;-67
2021/01/08 01:19:22;;;;;;;31.10;16.85;;;1.10;77.90;;;-1.08;79.36;95618.75;4957050;28;20039;-68
2021/01/08 01:21:48;;;;;;;30.98;16.35;;;1.10;77.60;;;-1.09;79.46;95617.13;4989469;28;20161;-68
2021/01/08 01:24:14;;;;;;;28.88;15.80;;;1.00;77.60;;;-1.04;79.05;95625.28;4992052;28;20038;-68
2021/01/08 01:26:39;;;;;;;31.58;17.02;;;1.00;77.90;;;-1.10;79.41;95621.47;5009687;28;20120;-68
2021/01/08 01:29:05;;;;;;;30.48;16.35;;;1.00;77.80;;;-1.05;79.32;95634.00;5009295;28;20030;-68
2021/01/08 01:31:31;;;;;;;32.25;16.50;;;1.00;77.80;;;-1.07;79.03;95634.13;4975183;28;20047;-68
2021/01/08 01:33:56;;;;;;;33.67;16.17;;;1.00;77.90;;;-1.12;79.54;95632.88;4978619;28;20088;-68
2021/01/08 01:36:22;;;;;;;31.67;16.70;;;1.00;78.00;;;-1.11;79.43;95639.66;5004909;28;20122;-68
2021/01/08 01:38:48;;;;;;;34.20;16.52;;;0.90;78.10;;;-1.16;79.08;95628.91;4953061;28;20070;-67
2021/01/08 01:41:14;;;;;;;29.27;14.75;;;1.00;78.10;;;-1.11;79.25;95631.94;4974811;28;20121;-67
2021/01/08 01:43:39;;;;;;;33.10;15.85;;;1.00;77.90;;;-1.16;79.26;95621.97;4989666;28;20122;-66
2021/01/08 01:46:05;;;;;;;31.95;15.63;;;1.00;77.90;;;-1.11;79.07;95629.34;4971384;28;20133;-67
2021/01/08 01:48:31;;;;;;;28.27;14.57;;;0.90;77.90;;;-1.17;79.57;95629.84;5003948;28;20062;-67
2021/01/08 01:50:57;;;;;;;31.15;16.60;;;0.90;78.10;;;-1.20;79.12;95619.78;4939861;28;20121;-68
2021/01/08 01:53:23;;;;;;;32.22;17.02;;;0.90;78.30;;;-1.14;79.19;95634.75;4951999;28;20569;-67
2021/01/08 01:55:49;;;;;;;29.58;15.82;;;0.90;78.20;;;-1.23;79.43;95621.69;4949921;28;20048;-67
2021/01/08 01:58:16;;;;;;;30.55;15.48;;;0.80;78.20;;;-1.17;79.26;95640.16;4969867;28;20057;-68
2021/01/08 02:00:42;;;;;;;31.65;16.55;;;0.90;78.30;;;-1.25;79.16;95617.59;4955067;28;20046;-67
2021/01/08 02:03:25;;;;;;;30.05;16.05;;;0.90;78.20;;;-1.20;80.02;95637.84;4971182;28;20048;-68
2021/01/08 02:06:01;;;;;;;32.85;16.35;;;0.80;78.30;;;-1.21;80.18;95641.38;4972172;28;20550;-68
2021/01/08 02:08:27;;;;;;;31.80;16.17;;;0.80;78.50;;;-1.23;79.53;95632.00;4952732;28;20027;-70
2021/01/08 02:11:03;;;;;;;29.48;16.23;;;0.80;78.50;;;-1.21;79.84;95641.38;4995621;28;20537;-67
2021/01/08 02:13:51;;;;;;;33.55;16.83;;;0.80;78.50;;;-1.24;80.14;95640.69;4987655;28;20188;-68
2021/01/08 02:16:17;;;;;;;30.08;14.98;;;0.70;78.60;;;-1.25;79.48;95641.63;4973809;28;20315;-68
2021/01/08 02:18:43;;;;;;;32.88;16.10;;;0.70;78.80;;;-1.31;79.40;95634.41;4954542;28;20498;-68
2021/01/08 02:21:19;;;;;;;32.25;16.38;;;0.80;78.70;;;-1.24;79.57;95645.84;4955293;28;20550;-69
2021/01/08 02:23:51;;;;;;;28.23;15.80;;;0.80;78.50;;;-1.25;79.86;95633.88;4986994;28;20042;-68
2021/01/08 02:26:17;;;;;;;31.65;16.55;;;0.90;78.50;;;-1.21;79.53;95636.22;4990127;28;20120;-69
2021/01/08 02:28:44;;;;;;;33.53;16.55;;;0.90;78.40;;;-1.25;79.45;95628.72;4989526;28;20559;-68
2021/01/08 02:31:10;;;;;;;34.35;16.65;;;0.90;78.40;;;-1.25;79.30;95633.88;4971509;28;20034;-67
2021/01/08 02:33:35;;;;;;;30.40;15.93;;;0.90;78.10;;;-1.24;79.27;95625.19;4956100;28;20546;-67
2021/01/08 02:36:01;;;;;;;31.50;15.98;;;1.00;77.90;;;-1.17;79.68;95640.16;4970641;28;20089;-68
2021/01/08 02:38:27;;;;;;;30.48;16.20;;;1.00;78.10;;;-1.24;79.79;95622.63;4977514;28;20073;-68
2021/01/08 02:40:53;;;;;;;32.90;16.48;;;0.90;78.10;;;-1.16;79.79;95631.47;4935432;28;20071;-67
2021/01/08 02:43:22;;;;;;;33.45;16.98;;;1.00;78.00;;;-1.22;79.69;95617.34;4965641;28;20072;-67
2021/01/08 02:45:49;;;;;;;31.83;17.02;;;1.00;77.80;;;-1.14;79.69;95632.16;4951877;28;20062;-67
2021/01/08 02:48:16;;;;;;;30.40;16.98;;;1.00;77.70;;;-1.12;79.62;95625.13;4986270;28;20038;-68
2021/01/08 02:50:42;;;;;;;30.50;16.75;;;1.10;77.60;;;-1.11;79.63;95635.31;4968750;28;574797;-68
2021/01/08 02:53:11;;;;;;;32.80;17.15;;;1.10;77.70;;;-1.09;79.67;95637.78;4952019;28;20089;-67
2021/01/08 02:55:36;;;;;;;32.85;16.33;;;1.00;77.60;;;-1.12;79.53;95625.94;4969670;28;20655;-68
2021/01/08 02:58:03;;;;;;;33.22;17.50;;;1.10;77.70;;;-1.09;79.31;95630.03;4987035;28;20133;-68
2021/01/08 03:00:30;;;;;;;30.23;16.10;;;1.10;77.40;;;-1.05;79.51;95631.41;4952116;28;20381;-68
2021/01/08 03:02:56;;;;;;;30.63;16.42;;;1.10;77.40;;;-1.05;79.35;95624.47;4971940;28;20042;-68
2021/01/08 03:05:22;;;;;;;31.17;16.65;;;1.10;77.40;;;-1.05;79.44;95627.06;4971743;28;20536;-67
2021/01/08 03:07:48;;;;;;;31.30;16.45;;;1.00;77.70;;;-1.04;79.49;95622.72;4987281;28;20503;-68
2021/01/08 03:10:14;;;;;;;55.25;28.20;;;1.10;77.60;;;-1.05;79.44;95613.34;4970328;28;20038;-68
2021/01/08 03:12:40;;;;;;;38.78;21.08;;;1.20;77.50;;;-1.00;79.40;95631.81;4986869;28;20030;-68
2021/01/08 03:15:08;;;;;;;31.95;17.48;;;1.10;77.10;;;-0.98;79.64;95635.09;4970032;28;20129;-68
2021/01/08 03:17:34;;;;;;;32.75;17.63;;;1.10;77.30;;;-1.03;79.33;95616.59;4950210;28;20518;-69
2021/01/08 03:20:00;;;;;;;33.70;16.30;;;1.10;77.10;;;-0.99;79.57;95625.72;4960314;28;20102;-68
2021/01/08 03:22:26;;;;;;;30.70;16.02;;;1.10;77.30;;;-1.03;79.65;95621.78;4981523;28;20133;-69
2021/01/08 03:24:52;;;;;;;30.23;16.90;;;1.10;77.30;;;-1.00;79.52;95629.25;4971328;28;20100;-68
2021/01/08 03:27:17;;;;;;;28.90;16.33;;;1.10;77.30;;;-1.05;79.63;95618.50;4970877;28;20069;-68
2021/01/08 03:29:43;;;;;;;33.40;17.30;;;1.10;77.50;;;-0.97;79.42;95637.53;4970826;28;20145;-69
2021/01/08 03:32:09;;;;;;;31.52;16.42;;;1.10;77.20;;;-1.06;79.15;95625.44;4986106;28;20121;-68
2021/01/08 03:34:34;;;;;;;30.63;16.75;;;1.00;77.40;;;-1.02;79.40;95629.38;4970612;28;20121;-68
2021/01/08 03:37:00;;;;;;;41.97;22.08;;;1.00;77.60;;;-0.99;79.52;95633.47;4986842;28;20121;-68
2021/01/08 03:39:26;;;;;;;44.17;21.98;;;1.10;78.10;;;-0.99;79.50;95633.47;4987492;28;20111;-68
2021/01/08 03:41:52;;;;;;;47.53;24.95;;;1.10;77.70;;;-1.03;79.42;95627.75;4987686;28;20114;-68
2021/01/08 03:44:17;;;;;;;38.72;20.67;;;1.10;77.30;;;-0.98;79.46;95627.34;4986434;28;20130;-67
2021/01/08 03:46:43;;;;;;;32.92;18.70;;;1.10;77.60;;;-1.03;79.49;95616.59;4970363;28;20053;-67
2021/01/08 03:49:09;;;;;;;36.15;17.88;;;1.10;77.20;;;-0.97;79.31;95631.56;4950786;28;20146;-67
2021/01/08 03:51:35;;;;;;;29.25;15.93;;;1.10;77.10;;;-0.97;79.04;95622.06;4986122;28;20057;-67
2021/01/08 03:54:00;;;;;;;30.25;16.88;;;1.10;77.10;;;-0.96;79.46;95622.88;4953710;28;20165;-68
2021/01/08 03:56:26;;;;;;;31.05;16.05;;;1.20;77.20;;;-1.01;79.25;95609.53;4986787;28;20061;-67
2021/01/08 03:58:52;;;;;;;32.47;17.27;;;1.20;76.80;;;-1.01;79.23;95606.97;4970305;28;20041;-67
2021/01/08 04:01:17;;;;;;;32.05;17.50;;;1.20;76.80;;;-1.02;79.16;95603.56;4970864;28;20498;-67
2021/01/08 04:03:43;;;;;;;33.70;16.10;;;1.20;76.70;;;-0.95;79.18;95614.19;4969833;28;20565;-67
2021/01/08 04:06:09;;;;;;;29.70;16.23;;;1.20;77.00;;;-1.01;79.10;95602.63;4986176;28;20549;-67
2021/01/08 04:08:35;;;;;;;30.85;16.13;;;1.20;76.90;;;-0.99;79.19;95603.31;4969483;28;20418;-67
2021/01/08 04:11:01;;;;;;;32.47;17.38;;;1.30;76.80;;;-0.91;79.50;95612.97;4969767;28;20078;-63
2021/01/08 04:13:27;;;;;;;31.15;16.88;;;1.30;76.70;;;-0.92;79.32;95613.91;4969281;28;20046;-68
2021/01/08 04:15:53;;;;;;;28.02;15.35;;;1.20;76.70;;;-0.92;79.49;95614.72;4956351;28;20141;-64
2021/01/08 04:18:19;;;;;;;31.92;17.65;;;1.20;77.40;;;-0.91;79.72;95615.53;4970179;28;20447;-65
2021/01/08 04:20:44;;;;;;;32.50;16.30;;;1.20;76.90;;;-0.94;79.28;95620.97;4968485;28;20461;-65
2021/01/08 04:23:10;;;;;;;30.38;15.95;;;1.20;77.10;;;-0.95;79.33;95619.34;4969583;28;20181;-68
2021/01/08 04:25:36;;;;;;;29.85;16.02;;;1.20;77.20;;;-0.96;79.44;95625.44;4969607;28;20443;-67
2021/01/08 04:28:01;;;;;;;31.52;16.90;;;1.20;77.20;;;-1.04;79.44;95620.94;4967884;28;20181;-70
2021/01/08 04:30:27;;;;;;;30.67;16.30;;;1.10;77.70;;;-1.07;79.60;95618.63;4966248;28;20035;-68
2021/01/08 04:32:53;;;;;;;32.15;17.13;;;1.10;77.80;;;-1.10;79.79;95612.91;4970005;28;20121;-68
2021/01/08 04:35:19;;;;;;;31.52;16.23;;;1.00;78.20;;;-1.06;79.67;95620.28;5004720;28;20117;-67
2021/01/08 04:37:44;;;;;;;29.15;15.00;;;1.00;78.60;;;-1.09;79.65;95619.72;4953609;28;20558;-68
2021/01/08 04:40:11;;;;;;;32.88;16.35;;;0.90;78.90;;;-1.08;79.69;95626.50;4985435;28;20176;-67
2021/01/08 04:42:37;;;;;;;30.27;16.02;;;1.00;78.70;;;-1.10;79.76;95625.81;4969538;28;20048;-67
2021/01/08 04:45:04;;;;;;;27.88;14.93;;;1.00;78.70;;;-1.16;79.89;95619.38;4969227;28;20061;-67
2021/01/08 04:47:30;;;;;;;30.35;16.58;;;1.10;78.60;;;-1.18;79.93;95623.88;5001220;28;20030;-68
2021/01/08 04:49:55;;;;;;;32.47;16.60;;;1.00;78.30;;;-1.17;79.52;95616.94;4969266;28;20038;-68
2021/01/08 04:52:21;;;;;;;31.13;16.85;;;1.00;78.70;;;-1.14;79.94;95627.00;4969087;28;20110;-67
2021/01/08 04:54:47;;;;;;;33.65;16.25;;;1.00;78.50;;;-1.20;80.04;95619.78;4949957;28;20042;-68
2021/01/08 04:57:13;;;;;;;32.72;16.83;;;1.00;78.50;;;-1.15;79.93;95627.94;4934623;28;20619;-67
2021/01/08 04:59:38;;;;;;;31.92;16.80;;;1.00;78.40;;;-1.15;79.80;95633.09;4958834;28;20061;-67
2021/01/08 05:02:04;;;;;;;36.47;17.05;;;1.00;78.30;;;-1.19;79.96;95613.66;4967764;28;20062;-67
2021/01/08 05:04:30;;;;;;;32.75;17.73;;;1.10;78.20;;;-1.13;79.89;95628.63;4969025;28;20122;-68
2021/01/08 05:06:56;;;;;;;33.55;17.50;;;1.10;78.00;;;-1.14;79.81;95629.59;4953294;28;20058;-67
2021/01/08 05:09:22;;;;;;;34.22;17.92;;;1.10;77.90;;;-1.20;79.82;95619.78;4949947;28;20062;-68
2021/01/08 05:11:47;;;;;;;34.17;17.75;;;1.00;78.20;;;-1.14;79.85;95629.59;4950209;28;20035;-67
2021/01/08 05:14:16;;;;;;;33.42;18.13;;;1.00;78.10;;;-1.21;80.00;95613.81;4976904;28;20441;-66
2021/01/08 05:16:42;;;;;;;39.70;18.88;;;1.00;78.00;;;-1.16;79.97;95626.31;4968522;28;20129;-66
2021/01/08 05:19:08;;;;;;;38.70;19.48;;;1.00;78.00;;;-1.16;79.85;95626.31;4949777;28;20098;-63
2021/01/08 05:21:33;;;;;;;37.83;18.27;;;1.00;78.20;;;-1.16;79.79;95629.72;4966167;28;20046;-66
2021/01/08 05:24:01;;;;;;;34.35;18.38;;;1.00;78.10;;;-1.18;79.76;95623.03;4956584;28;20046;-64
2021/01/08 05:26:27;;;;;;;33.58;18.08;;;1.00;77.80;;;-1.15;80.26;95627.94;4953721;28;20022;-67
2021/01/08 05:28:55;;;;;;;35.00;17.83;;;1.10;77.90;;;-1.13;79.85;95631.22;4949884;28;20038;-64
2021/01/08 05:31:24;;;;;;;33.90;17.83;;;1.00;77.70;;;-1.12;79.98;95638.03;4950324;28;20042;-65
2021/01/08 05:33:53;;;;;;;32.10;17.88;;;1.10;77.70;;;-1.13;80.04;95631.22;4941625;28;20497;-64
2021/01/08 05:36:20;;;;;;;37.25;18.33;;;1.10;77.90;;;-1.09;80.15;95630.03;4979692;28;20062;-65
2021/01/08 05:38:49;;;;;;;34.38;17.90;;;1.10;77.80;;;-1.13;79.90;95632.06;4952545;28;20057;-64
2021/01/08 05:41:14;;;;;;;33.47;18.73;;;1.10;77.50;;;-1.08;79.89;95635.06;4954154;28;20059;-66
2021/01/08 05:43:42;;;;;;;35.45;18.00;;;1.10;77.40;;;-1.13;80.00;95620.91;4967524;28;20113;-66
2021/01/08 05:46:17;;;;;;;33.15;18.08;;;1.10;77.20;;;-1.08;79.67;95629.09;5003259;28;20042;-68
2021/01/08 05:48:54;;;;;;;32.85;18.00;;;1.10;77.30;;;-1.14;80.00;95624.41;5008597;28;20034;-68
2021/01/08 05:51:24;;;;;;;34.67;17.83;;;1.10;77.40;;;-1.09;79.82;95638.59;4976371;28;20113;-68
2021/01/08 05:53:51;;;;;;;36.90;18.17;;;1.10;77.30;;;-1.15;79.97;95622.78;4976215;28;20042;-68
2021/01/08 05:56:21;;;;;;;33.22;17.73;;;1.20;77.20;;;-1.08;79.61;95642.81;4976228;28;20037;-67
2021/01/08 05:58:48;;;;;;;37.60;17.88;;;1.20;77.10;;;-1.08;79.62;95640.22;4992703;28;20084;-67
2021/01/08 06:01:15;;;;;;;31.83;17.50;;;1.20;76.70;;;-1.08;79.43;95644.56;4991952;28;20125;-68
2021/01/08 06:03:42;;;;;;;32.03;17.15;;;1.20;76.70;;;-1.07;79.86;95641.03;5008041;28;20029;-67
2021/01/08 06:06:08;;;;;;;31.95;17.55;;;1.20;76.80;;;-1.09;79.63;95641.19;4991711;28;20041;-68
2021/01/08 06:08:50;;;;;;;35.75;18.45;;;1.10;76.70;;;-1.09;79.27;95646.34;5007575;28;20474;-68
2021/01/08 06:11:19;;;;;;;29.40;16.15;;;1.10;76.80;;;-1.11;79.68;95639.66;5006779;28;20537;-68
2021/01/08 06:13:50;;;;;;;36.85;18.73;;;1.10;77.30;;;-1.13;79.88;95646.69;5008674;28;20037;-70
2021/01/08 06:16:20;;;;;;;33.30;17.50;;;1.00;77.10;;;-1.15;79.68;95648.59;4976845;28;20026;-70
2021/01/08 06:18:55;;;;;;;33.25;17.88;;;1.00;77.10;;;-1.16;79.79;95641.78;4992033;28;20038;-69
2021/01/08 06:21:34;;;;;;;33.30;17.95;;;1.10;77.10;;;-1.19;80.10;95642.88;4990280;28;20494;-68
2021/01/08 06:23:59;;;;;;;31.20;17.65;;;1.10;77.10;;;-1.20;79.72;95643.00;4993654;28;20113;-68
2021/01/08 06:26:25;;;;;;;33.78;17.38;;;1.00;77.00;;;-1.22;79.69;95645.72;4992342;28;20236;-68
2021/01/08 06:28:51;;;;;;;31.77;17.17;;;1.00;77.30;;;-1.20;79.60;95651.56;4975916;28;20069;-68
2021/01/08 06:31:23;;;;;;;33.90;16.27;;;0.90;77.50;;;-1.20;80.01;95653.31;4991992;28;20265;-68
2021/01/08 06:34:00;;;;;;;34.08;16.95;;;1.00;77.60;;;-1.18;80.13;95654.00;5008426;28;20135;-67
2021/01/08 06:36:32;;;;;;;30.90;16.38;;;1.00;77.50;;;-1.20;80.01;95661.88;5004661;28;20033;-68
2021/01/08 06:38:59;;;;;;;38.60;19.08;;;0.90;77.60;;;-1.24;80.10;95655.34;4988621;28;20437;-69
2021/01/08 06:41:25;;;;;;;33.25;17.55;;;0.90;77.80;;;-1.30;79.40;95645.53;5004429;28;20084;-69
2021/01/08 06:44:00;;;;;;;33.70;18.42;;;0.90;77.60;;;-1.29;80.10;95653.16;4981716;28;20110;-68
2021/01/08 06:46:39;;;;;;;34.85;18.25;;;0.90;77.80;;;-1.26;80.14;95657.25;4992892;28;20037;-67
2021/01/08 06:49:10;;;;;;;36.33;18.30;;;0.90;78.00;;;-1.34;79.95;95644.97;5009045;28;20026;-67
2021/01/08 06:51:37;;;;;;;33.58;17.60;;;0.80;78.20;;;-1.28;80.06;95661.72;4976433;28;20105;-67
2021/01/08 06:54:04;;;;;;;32.90;17.25;;;0.80;78.30;;;-1.28;79.97;95667.69;4991990;28;20030;-65
2021/01/08 06:56:38;;;;;;;33.67;17.30;;;0.90;78.30;;;-1.26;80.51;95668.38;5012941;28;20708;-67
2021/01/08 06:59:16;;;;;;;34.97;17.80;;;0.90;78.10;;;-1.25;80.55;95670.00;5023139;28;20029;-67
2021/01/08 07:01:53;;;;;;;38.20;18.95;;;0.90;78.00;;;-1.24;79.85;95666.50;5027037;28;20468;-68
2021/01/08 07:04:32;;;;;;;36.33;18.25;;;0.90;78.30;;;-1.24;80.66;95674.22;5027973;28;20038;-69
2021/01/08 07:07:02;;;;;;;39.30;18.95;;;1.00;78.20;;;-1.21;80.31;95667.16;4975733;28;20104;-66
2021/01/08 07:09:37;;;;;;;35.83;18.17;;;1.00;78.10;;;-1.20;80.46;95671.38;4990143;28;20034;-68
2021/01/08 07:12:05;;;;;;;35.95;18.60;;;0.90;78.20;;;-1.20;80.03;95676.56;4989326;28;20057;-66
2021/01/08 07:14:31;;;;;;;37.78;18.95;;;1.00;78.20;;;-1.27;79.87;95661.59;4990002;28;20030;-63
2021/01/08 07:16:58;;;;;;;35.97;18.38;;;1.00;78.00;;;-1.18;79.76;95670.31;4974155;28;20048;-69
2021/01/08 07:19:27;;;;;;;41.22;20.60;;;1.10;78.00;;;-1.12;80.15;95679.34;4990711;28;20033;-67
2021/01/08 07:21:54;;;;;;;37.45;18.92;;;1.10;77.80;;;-1.14;79.76;95681.19;4990010;28;20402;-68
2021/01/08 07:24:32;;;;;;;36.47;18.42;;;1.10;77.70;;;-1.10;80.29;95690.34;4986585;28;20026;-67
2021/01/08 07:27:20;;;;;;;36.70;18.85;;;1.10;77.60;;;-1.09;80.15;95684.22;4971472;28;20072;-64
2021/01/08 07:29:59;;;;;;;32.17;17.52;;;1.10;77.40;;;-1.12;79.92;95687.06;4987892;28;20406;-66
2021/01/08 07:32:43;;;;;;;35.10;18.05;;;1.10;77.50;;;-1.05;80.29;95695.94;4973111;28;20042;-66
2021/01/08 07:35:28;;;;;;;35.30;17.50;;;1.10;77.50;;;-1.03;80.16;95694.03;4988191;28;20038;-65
2021/01/08 07:38:13;;;;;;;34.35;17.40;;;1.20;77.30;;;-1.07;79.99;95688.31;4988551;28;20552;-69
2021/01/08 07:40:48;;;;;;;32.30;17.58;;;1.20;77.20;;;-0.98;80.15;95697.03;4971578;28;20045;-66
2021/01/08 07:43:14;;;;;;;30.55;16.90;;;1.30;77.00;;;-1.02;80.01;95693.09;4989510;28;20034;-67
2021/01/08 07:45:56;;;;;;;34.20;18.50;;;1.40;76.60;;;-0.93;79.70;95705.22;4972047;28;20045;-65
2021/01/08 07:48:35;;;;;;;34.33;18.50;;;1.30;76.40;;;-0.93;79.58;95702.63;4972218;28;20046;-69
2021/01/08 07:51:06;;;;;;;35.30;18.38;;;1.30;76.50;;;-0.91;79.47;95713.66;4987968;28;20034;-64
2021/01/08 07:53:47;;;;;;;38.53;20.25;;;1.30;76.60;;;-0.88;79.94;95718.59;4972638;28;20026;-70
2021/01/08 07:56:26;;;;;;;34.60;17.23;;;1.40;76.40;;;-0.86;79.45;95711.53;4989496;28;20049;-64
2021/01/08 07:59:06;;;;;;;33.50;17.23;;;1.40;76.30;;;-0.84;79.72;95722.53;4966952;28;20035;-66
2021/01/08 08:01:35;;;;;;;32.90;17.03;;;1.30;76.20;;;-0.82;79.73;95723.22;4974116;28;20042;-65
2021/01/08 08:04:05;;;;;;;34.08;17.58;;;1.40;76.30;;;-0.80;79.49;95716.16;4971382;28;20053;-64
2021/01/08 08:06:32;;;;;;;33.00;16.60;;;1.50;76.10;;;-0.77;79.51;95731.41;4988822;28;20147;-68
2021/01/08 08:09:00;;;;;;;33.17;17.90;;;1.40;76.10;;;-0.73;79.26;95726.78;4982393;28;20043;-67
2021/01/08 08:11:34;;;;;;;30.70;16.83;;;1.50;75.90;;;-0.71;79.14;95728.28;4985273;28;20053;-67
2021/01/08 08:14:00;;;;;;;30.02;16.33;;;1.50;75.80;;;-0.69;79.35;95728.16;4969811;28;20108;-68
2021/01/08 08:16:36;;;;;;;31.45;16.95;;;1.50;75.70;;;-0.64;79.19;95731.19;4991607;28;20041;-66
2021/01/08 08:19:03;;;;;;;33.20;17.20;;;1.60;75.70;;;-0.62;79.05;95724.94;4976513;28;20084;-69
2021/01/08 08:21:29;;;;;;;34.45;17.23;;;1.60;75.30;;;-0.58;79.06;95740.19;5005741;28;20088;-69
2021/01/08 08:23:56;;;;;;;32.22;17.75;;;1.70;75.30;;;-0.56;78.97;95739.09;5005919;28;20033;-68
2021/01/08 08:26:22;;;;;;;30.55;16.15;;;1.70;75.40;;;-0.53;79.17;95738.03;5007174;28;20033;-65
2021/01/08 08:29:05;;;;;;;32.28;18.08;;;1.70;75.30;;;-0.49;78.81;95742.78;4971753;28;20042;-65
2021/01/08 08:31:50;;;;;;;30.02;17.25;;;1.70;75.00;;;-0.48;78.82;95735.88;5000189;28;20026;-66
2021/01/08 08:34:26;;;;;;;32.13;16.98;;;1.70;75.20;;;-0.44;78.90;95742.44;5007876;28;20025;-66
2021/01/08 08:36:51;;;;;;;32.58;17.55;;;1.70;75.10;;;-0.43;79.16;95738.91;5007282;28;20497;-66
2021/01/08 08:39:17;;;;;;;34.47;17.67;;;1.70;75.00;;;-0.44;79.05;95730.34;4991013;28;20168;-64
2021/01/08 08:41:45;;;;;;;31.83;17.80;;;1.80;74.90;;;-0.34;78.67;95738.91;4990652;28;20061;-64
2021/01/08 08:44:16;;;;;;;29.38;15.77;;;2.00;74.60;;;-0.29;78.78;95735.94;4970708;28;20062;-65
2021/01/08 08:46:55;;;;;;;29.38;16.73;;;2.00;74.50;;;-0.26;78.48;95738.25;5003173;28;20061;-67
2021/01/08 08:49:28;;;;;;;27.55;15.65;;;2.00;74.20;;;-0.22;79.01;95734.50;4975044;28;20113;-65
2021/01/08 08:51:54;;;;;;;28.25;15.70;;;2.00;73.90;;;-0.18;78.48;95727.28;4974931;28;20038;-66
2021/01/08 08:54:20;;;;;;;30.92;15.68;;;2.10;73.60;;;-0.12;79.08;95732.72;4968526;28;20042;-67
2021/01/08 08:56:58;;;;;;;30.13;16.42;;;2.30;74.80;;;-0.05;77.50;95736.41;4944718;28;20101;-70
2021/01/08 08:59:43;;;;;;;32.22;16.73;;;2.20;72.80;;;0.02;78.07;95728.16;4957265;28;20030;-68
2021/01/08 09:02:10;;;;;;;27.85;15.63;;;2.30;73.20;;;0.06;78.51;95735.50;4986242;28;20031;-69
2021/01/08 09:04:36;;;;;;;31.58;16.10;;;2.30;72.90;;;0.08;77.89;95727.59;4989208;28;20031;-72
2021/01/08 09:07:12;;;;;;;25.50;14.15;;;2.40;72.70;;;0.09;77.18;95718.91;4971668;28;20042;-68
2021/01/08 09:09:39;;;;;;;25.75;14.50;;;2.40;71.90;;;0.17;77.50;95737.94;4969622;28;20502;-67
2021/01/08 09:12:33;;;;;;;24.25;13.65;;;2.40;72.30;;;0.25;76.34;95724.38;4951635;28;20117;-67
2021/01/08 09:15:32;;;;;;;27.20;14.50;;;2.50;71.90;;;0.33;76.26;95736.63;4964600;28;20581;-70
2021/01/08 09:18:34;;;;;;;25.90;13.93;;;2.70;71.70;;;0.41;76.28;95734.16;4974535;28;20194;-64
2021/01/08 09:21:20;;;;;;;27.30;14.57;;;2.80;71.20;;;0.45;75.85;95731.16;5004999;28;20026;-64
2021/01/08 09:23:46;;;;;;;23.65;12.27;;;2.60;70.90;;;0.47;77.42;95739.63;4981587;28;20669;-68
2021/01/08 09:26:13;;;;;;;21.48;12.57;;;2.70;70.90;;;0.52;76.87;95740.03;4992200;28;20486;-68
2021/01/08 09:28:40;;;;;;;22.73;13.57;;;2.80;70.30;;;0.56;76.53;95733.63;4971047;28;20030;-68
2021/01/08 09:31:06;;;;;;;22.63;13.07;;;2.90;70.00;;;0.59;76.79;95733.34;4968670;28;20038;-67
2021/01/08 09:33:32;;;;;;;24.02;13.60;;;2.90;70.10;;;0.56;76.70;95728.47;4971968;28;20084;-69
2021/01/08 09:35:58;;;;;;;22.50;13.23;;;2.90;69.80;;;0.64;76.56;95735.53;4986455;28;20045;-66
2021/01/08 09:38:24;;;;;;;21.13;12.40;;;3.00;69.80;;;0.76;76.59;95731.03;4955666;28;20065;-65
2021/01/08 09:40:50;;;;;;;21.42;12.02;;;3.10;69.00;;;0.76;76.39;95728.44;4984429;28;20501;-69
2021/01/08 09:43:19;;;;;;;19.50;11.45;;;3.20;68.80;;;0.87;76.33;95749.00;4974875;28;20134;-67
2021/01/08 09:45:45;;;;;;;20.52;12.50;;;3.20;68.20;;;0.95;76.79;95741.38;5006457;28;20367;-65
2021/01/08 09:48:21;;;;;;;22.45;12.35;;;3.30;68.00;;;1.01;74.14;95746.00;4974233;28;20026;-66
2021/01/08 09:50:47;;;;;;;24.33;13.35;;;3.50;67.60;;;1.03;76.16;95738.91;4954683;28;20039;-66
2021/01/08 09:53:12;;;;;;;23.38;12.88;;;3.50;67.40;;;1.16;75.63;95742.03;4952477;28;20022;-67
2021/01/08 09:55:38;;;;;;;21.77;12.65;;;3.60;67.00;;;1.25;75.33;95742.13;4974557;28;20064;-66
2021/01/08 09:58:04;;;;;;;22.25;12.05;;;3.70;66.60;;;1.28;75.49;95739.25;4974163;28;20058;-69
2021/01/08 10:00:36;;;;;;;22.45;12.25;;;3.90;66.30;;;1.37;73.94;95728.88;4957411;28;20038;-69
2021/01/08 10:03:05;;;;;;;19.55;11.40;;;4.00;65.50;;;1.46;74.57;95735.78;4991253;28;20049;-69
2021/01/08 10:05:32;;;;;;;21.17;11.68;;;3.80;65.40;;;1.51;74.54;95733.59;4990526;28;20030;-69
2021/01/08 10:08:00;;;;;;;20.77;12.25;;;3.90;65.50;;;1.60;74.12;95734.53;4960449;28;20416;-64
2021/01/08 10:10:25;;;;;;;19.33;11.55;;;4.10;65.30;;;1.67;74.16;95740.75;4990331;28;20490;-66
2021/01/08 10:12:51;;;;;;;20.20;11.88;;;4.10;64.70;;;1.69;74.48;95738.84;4991687;28;20049;-66
2021/01/08 10:15:18;;;;;;;20.60;12.30;;;4.10;64.70;;;1.76;74.58;95736.47;4974078;28;20049;-66
2021/01/08 10:17:48;;;;;;;25.55;13.55;;;4.20;64.30;;;1.80;72.93;95730.84;5005842;28;20038;-67
2021/01/08 10:20:24;;;;;;;17.98;10.48;;;4.30;64.10;;;1.82;72.20;95735.94;4958430;28;20703;-69